Time;durP1;ratioP1;P1;durP2;ratioP2;P2;SDS_P1;SDS_P2;PMS_P1;PMS_P2;Temp;Humidity;BMP_temperature;BMP_pressure;BME280_temperature;BME280_humidity;BME280_pressure;Samples;Min_cycle;Max_cycle;Signal;HPM_P1;HPM_P2
2023/12/13 00:00:07;;;;;;;5.27;2.20;;;9.70;99.90;;;;;;5031758;28;20717;-90
2023/12/13 00:02:33;;;;;;;4.47;4.00;;;9.80;99.90;;;;;;5030916;28;20215;-92
2023/12/13 00:04:59;;;;;;;6.37;4.77;;;9.60;99.90;;;;;;5031634;28;20279;-90
2023/12/13 00:07:25;;;;;;;10.33;4.30;;;9.60;99.90;;;;;;5031457;28;20182;-90
2023/12/13 00:09:50;;;;;;;7.87;5.43;;;9.70;99.90;;;;;;5032348;28;20183;-90
2023/12/13 00:12:17;;;;;;;6.63;2.80;;;9.80;99.90;;;;;;5031548;28;20222;-90
2023/12/13 00:14:43;;;;;;;6.33;4.87;;;9.70;99.90;;;;;;5033031;28;20225;-91
2023/12/13 00:17:14;;;;;;;4.50;2.40;;;9.50;99.90;;;;;;5034467;28;20644;-91
2023/12/13 00:19:40;;;;;;;5.20;3.23;;;9.80;99.90;;;;;;5003315;28;20305;-91
2023/12/13 00:22:06;;;;;;;5.30;4.80;;;9.60;99.90;;;;;;5036361;28;20205;-91
2023/12/13 00:24:32;;;;;;;2.50;2.30;;;9.80;99.90;;;;;;5019435;28;20720;-91
2023/12/13 00:26:57;;;;;;;5.50;4.47;;;9.90;99.90;;;;;;5019404;28;20229;-89
2023/12/13 00:29:23;;;;;;;3.50;2.80;;;9.90;99.90;;;;;;5002788;28;20223;-89
2023/12/13 00:31:49;;;;;;;3.03;2.67;;;9.90;99.90;;;;;;5019010;28;20696;-92
2023/12/13 00:34:15;;;;;;;6.50;3.40;;;9.90;99.90;;;;;;5003708;28;20179;-90
2023/12/13 00:36:40;;;;;;;7.63;3.63;;;9.60;99.90;;;;;;5035301;28;20678;-89
2023/12/13 00:39:06;;;;;;;2.73;2.57;;;9.90;99.90;;;;;;5035326;28;20703;-89
2023/12/13 00:41:32;;;;;;;7.53;3.60;;;9.80;99.90;;;;;;5002355;28;20214;-87
2023/12/13 00:43:58;;;;;;;2.60;2.27;;;9.90;99.90;;;;;;5004291;28;20754;-89
2023/12/13 00:46:24;;;;;;;5.47;3.73;;;9.90;99.90;;;;;;5018553;28;20198;-89
2023/12/13 00:48:50;;;;;;;4.10;2.90;;;9.80;99.90;;;;;;5002959;28;20186;-91
2023/12/13 00:51:21;;;;;;;2.63;2.30;;;9.70;99.90;;;;;;5002632;28;20214;-88
2023/12/13 00:53:47;;;;;;;2.33;2.23;;;9.60;99.90;;;;;;5022125;28;20222;-89
2023/12/13 00:56:13;;;;;;;4.10;2.50;;;9.70;99.90;;;;;;5038177;28;20670;-90
2023/12/13 00:58:47;;;;;;;4.03;1.80;;;9.80;99.90;;;;;;5038521;28;20220;-89
2023/12/13 01:01:13;;;;;;;2.23;2.07;;;9.60;99.90;;;;;;5023010;28;20182;-89
2023/12/13 01:03:39;;;;;;;4.10;2.83;;;9.80;99.90;;;;;;5037671;28;20237;-89
2023/12/13 01:06:11;;;;;;;5.40;3.13;;;9.40;99.90;;;;;;5055990;28;20301;-88
2023/12/13 01:08:40;;;;;;;5.80;3.07;;;9.50;99.90;;;;;;5038195;28;20221;-88
2023/12/13 01:11:09;;;;;;;4.43;4.00;;;9.70;99.90;;;;;;5021249;28;20224;-89
2023/12/13 01:13:35;;;;;;;3.93;2.17;;;9.60;99.90;;;;;;5021348;28;20182;-88
2023/12/13 01:16:01;;;;;;;5.00;4.50;;;9.70;99.90;;;;;;5022147;28;20529;-88
2023/12/13 01:18:27;;;;;;;2.83;1.90;;;9.70;99.90;;;;;;5004826;28;20244;-89
2023/12/13 01:20:53;;;;;;;8.93;5.00;;;9.70;99.90;;;;;;5021451;28;20230;-90
2023/12/13 01:23:19;;;;;;;3.63;3.40;;;9.70;99.90;;;;;;5005471;28;20282;-90
2023/12/13 01:25:44;;;;;;;9.63;4.07;;;9.40;99.90;;;;;;5005571;28;20221;-90
2023/12/13 01:28:10;;;;;;;3.50;2.50;;;9.30;99.90;;;;;;5020561;28;20193;-90
2023/12/13 01:30:36;;;;;;;5.87;3.27;;;9.80;99.90;;;;;;5021522;28;20728;-88
2023/12/13 01:33:02;;;;;;;6.67;3.60;;;9.50;99.90;;;;;;5021501;28;20296;-89
2023/12/13 01:35:27;;;;;;;4.40;3.60;;;9.60;99.90;;;;;;5021372;28;20214;-89
2023/12/13 01:37:53;;;;;;;5.83;3.50;;;9.80;99.90;;;;;;5004933;28;20704;-90
2023/12/13 01:40:19;;;;;;;12.03;4.67;;;9.90;99.90;;;;;;5021023;28;20188;-90
2023/12/13 01:42:44;;;;;;;3.93;3.07;;;9.90;99.90;;;;;;5005768;28;20171;-90
2023/12/13 01:45:12;;;;;;;9.17;2.73;;;9.80;99.90;;;;;;5020982;28;20676;-89
2023/12/13 01:47:38;;;;;;;9.67;5.07;;;9.50;99.90;;;;;;5020758;28;20222;-91
2023/12/13 01:50:05;;;;;;;7.00;4.13;;;9.50;99.90;;;;;;5053394;28;20248;-91
2023/12/13 01:52:31;;;;;;;3.13;1.80;;;9.60;99.90;;;;;;5037379;28;20174;-90
2023/12/13 01:54:57;;;;;;;3.20;2.70;;;9.90;99.90;;;;;;5055562;28;20263;-90
2023/12/13 01:57:23;;;;;;;8.70;4.53;;;9.60;99.90;;;;;;5037241;28;20225;-90
2023/12/13 01:59:49;;;;;;;5.43;2.70;;;9.80;99.90;;;;;;5037233;28;20221;-90
2023/12/13 02:02:15;;;;;;;4.17;3.57;;;9.50;99.90;;;;;;5036888;28;20297;-90
2023/12/13 02:04:42;;;;;;;4.80;3.93;;;9.70;99.90;;;;;;5020287;28;20237;-92
2023/12/13 02:07:08;;;;;;;4.63;2.70;;;9.60;99.90;;;;;;5037427;28;20188;-89
2023/12/13 02:09:34;;;;;;;2.77;1.80;;;9.50;99.90;;;;;;5020506;28;20308;-89
2023/12/13 02:12:03;;;;;;;2.17;2.07;;;9.60;99.90;;;;;;5020728;28;20222;-89
2023/12/13 02:14:29;;;;;;;2.73;2.53;;;9.80;99.90;;;;;;5036755;28;20646;-91
2023/12/13 02:16:55;;;;;;;3.20;3.00;;;9.40;99.90;;;;;;5053920;28;20275;-89
2023/12/13 02:19:21;;;;;;;4.03;2.77;;;9.70;99.90;;;;;;5020145;28;20206;-89
2023/12/13 02:21:46;;;;;;;3.90;3.60;;;9.40;99.90;;;;;;5037357;28;20223;-89
2023/12/13 02:24:12;;;;;;;3.50;2.70;;;9.40;99.90;;;;;;5020271;28;20692;-89
2023/12/13 02:26:41;;;;;;;4.03;2.50;;;9.40;99.90;;;;;;5020559;28;20222;-89
2023/12/13 02:29:09;;;;;;;2.40;2.30;;;9.40;99.90;;;;;;5036896;28;20685;-89
2023/12/13 02:31:35;;;;;;;1.80;1.73;;;9.40;99.90;;;;;;5052942;28;20240;-88
2023/12/13 02:34:01;;;;;;;4.30;3.10;;;9.70;99.90;;;;;;5020425;28;20186;-92
2023/12/13 02:36:27;;;;;;;4.40;2.90;;;9.60;99.90;;;;;;5052776;28;20221;-90
2023/12/13 02:38:53;;;;;;;6.40;3.50;;;9.40;99.90;;;;;;5003020;28;20214;-91
2023/12/13 02:41:19;;;;;;;1.80;1.70;;;9.30;99.90;;;;;;5019963;28;20550;-91
2023/12/13 02:43:45;;;;;;;3.33;2.73;;;9.40;99.90;;;;;;5020222;28;20226;-91
2023/12/13 02:46:11;;;;;;;3.47;3.00;;;9.30;99.90;;;;;;5020514;28;20185;-91
2023/12/13 02:48:37;;;;;;;5.57;3.20;;;9.40;99.90;;;;;;5019682;28;20225;-90
2023/12/13 02:51:03;;;;;;;11.43;3.17;;;9.30;99.90;;;;;;5019575;28;20226;-91
2023/12/13 02:53:29;;;;;;;4.30;3.27;;;9.70;99.90;;;;;;5036117;28;20590;-91
2023/12/13 02:55:55;;;;;;;1.57;0.93;;;9.30;99.90;;;;;;5035911;28;20213;-90
2023/12/13 02:58:21;;;;;;;4.20;2.03;;;9.60;99.90;;;;;;5019464;28;20210;-89
2023/12/13 03:00:48;;;;;;;2.30;1.93;;;9.70;99.90;;;;;;5003812;28;20265;-90
2023/12/13 03:03:14;;;;;;;2.80;1.97;;;9.60;99.90;;;;;;5003344;28;20210;-88
2023/12/13 03:05:39;;;;;;;2.07;1.10;;;9.50;99.90;;;;;;5019484;28;20220;-90
2023/12/13 03:08:05;;;;;;;5.70;2.50;;;9.40;99.90;;;;;;5035698;28;20630;-90
2023/12/13 03:10:31;;;;;;;3.40;2.07;;;9.70;99.90;;;;;;5019056;28;20592;-90
2023/12/13 03:12:56;;;;;;;6.80;3.03;;;9.70;99.90;;;;;;5053885;28;20205;-90
2023/12/13 03:15:22;;;;;;;1.07;1.03;;;9.30;99.90;;;;;;5002838;28;20583;-90
2023/12/13 03:17:48;;;;;;;4.13;3.00;;;9.50;99.90;;;;;;5002726;28;20690;-88
2023/12/13 03:20:14;;;;;;;1.27;1.17;;;9.40;99.90;;;;;;5019204;28;20613;-89
2023/12/13 03:22:39;;;;;;;2.50;1.83;;;9.30;99.90;;;;;;5002994;28;20229;-90
2023/12/13 03:25:06;;;;;;;2.67;2.47;;;9.10;99.90;;;;;;5020523;28;20201;-90
2023/12/13 03:27:31;;;;;;;3.33;2.43;;;9.40;99.90;;;;;;5035982;28;20218;-89
2023/12/13 03:29:57;;;;;;;1.97;1.87;;;9.30;99.90;;;;;;5019049;28;20289;-89
2023/12/13 03:32:23;;;;;;;1.27;0.87;;;9.10;99.90;;;;;;5018848;28;20222;-90
2023/12/13 03:34:49;;;;;;;2.50;2.30;;;9.00;99.90;;;;;;5002547;28;20221;-91
2023/12/13 03:37:15;;;;;;;5.63;3.47;;;9.20;99.90;;;;;;5019911;28;20210;-91
2023/12/13 03:39:41;;;;;;;1.87;1.70;;;9.20;99.90;;;;;;5002755;28;20222;-89
2023/12/13 03:42:06;;;;;;;5.07;3.17;;;9.50;99.90;;;;;;5003064;28;20228;-91
2023/12/13 03:44:32;;;;;;;3.20;2.90;;;9.20;99.90;;;;;;5002621;28;20221;-88
2023/12/13 03:46:58;;;;;;;5.57;4.93;;;9.50;99.90;;;;;;5035370;28;20250;-91
2023/12/13 03:49:24;;;;;;;2.30;2.10;;;9.50;99.90;;;;;;5002680;28;20182;-91
2023/12/13 03:51:49;;;;;;;6.53;3.03;;;9.50;99.90;;;;;;5005805;28;20222;-91
2023/12/13 03:54:15;;;;;;;3.20;2.93;;;9.20;99.90;;;;;;5023224;28;20722;-90
2023/12/13 03:56:42;;;;;;;3.70;1.93;;;9.40;99.90;;;;;;5056716;28;20226;-90
2023/12/13 03:59:08;;;;;;;2.87;2.20;;;9.40;99.90;;;;;;5038830;28;20221;-88
2023/12/13 04:01:34;;;;;;;3.93;2.43;;;9.60;99.90;;;;;;5056194;28;20178;-89
2023/12/13 04:04:00;;;;;;;3.13;1.93;;;9.60;99.90;;;;;;5039848;28;20178;-89
2023/12/13 04:06:26;;;;;;;3.97;2.93;;;9.30;99.90;;;;;;5056648;28;20217;-88
2023/12/13 04:08:52;;;;;;;3.43;3.20;;;9.50;99.90;;;;;;5022654;28;20317;-90
2023/12/13 04:11:18;;;;;;;3.37;2.67;;;9.50;99.90;;;;;;5006545;28;20221;-90
2023/12/13 04:13:44;;;;;;;4.67;2.07;;;9.60;99.90;;;;;;5006314;28;20218;-89
2023/12/13 04:16:09;;;;;;;2.00;1.70;;;9.30;99.90;;;;;;5023111;28;20192;-91
2023/12/13 04:18:36;;;;;;;2.53;1.97;;;9.70;99.90;;;;;;5022801;28;20237;-90
2023/12/13 04:21:02;;;;;;;2.20;1.63;;;9.70;99.90;;;;;;5039092;28;20253;-91
2023/12/13 04:23:28;;;;;;;1.90;1.37;;;9.70;99.90;;;;;;5006454;28;20578;-90
2023/12/13 04:25:54;;;;;;;2.13;2.00;;;9.60;99.90;;;;;;5006094;28;20671;-91
2023/12/13 04:28:19;;;;;;;5.03;2.53;;;9.70;99.90;;;;;;5006023;28;20231;-89
2023/12/13 04:30:45;;;;;;;2.37;1.50;;;9.70;99.90;;;;;;5023480;28;20178;-89
2023/12/13 04:33:11;;;;;;;3.53;3.27;;;9.50;99.90;;;;;;5022199;28;20218;-90
2023/12/13 04:35:37;;;;;;;5.40;2.03;;;9.80;99.90;;;;;;5006236;28;20206;-89
2023/12/13 04:38:02;;;;;;;3.57;2.90;;;9.50;99.90;;;;;;5022789;28;20283;-89
2023/12/13 04:40:28;;;;;;;3.40;1.83;;;9.40;99.90;;;;;;5021926;28;20182;-90
2023/12/13 04:42:54;;;;;;;3.47;2.67;;;9.70;99.90;;;;;;5006907;28;20244;-90
2023/12/13 04:45:20;;;;;;;3.13;2.07;;;9.50;99.90;;;;;;5056211;28;20630;-90
2023/12/13 04:47:46;;;;;;;3.33;2.53;;;9.50;99.90;;;;;;5021807;28;20221;-90
2023/12/13 04:50:11;;;;;;;3.83;2.90;;;9.70;99.90;;;;;;5005736;28;20724;-89
2023/12/13 04:52:37;;;;;;;2.10;1.47;;;9.70;99.90;;;;;;5021972;28;20282;-90
2023/12/13 04:55:03;;;;;;;8.07;2.83;;;9.70;99.90;;;;;;5022105;28;20174;-89
2023/12/13 04:57:29;;;;;;;4.53;3.00;;;9.40;99.90;;;;;;5021515;28;20226;-88
2023/12/13 04:59:55;;;;;;;10.17;3.40;;;9.40;99.90;;;;;;5024702;28;20218;-89
2023/12/13 05:02:20;;;;;;;3.33;2.27;;;9.60;99.90;;;;;;5017960;28;20222;-90
2023/12/13 05:04:47;;;;;;;3.63;2.83;;;9.50;99.90;;;;;;5002021;28;20246;-90
2023/12/13 05:07:13;;;;;;;2.27;2.10;;;9.50;99.90;;;;;;5002604;28;20179;-89
2023/12/13 05:09:38;;;;;;;4.37;3.67;;;9.40;99.90;;;;;;5002093;28;20217;-90
2023/12/13 05:12:05;;;;;;;3.17;2.87;;;9.40;99.90;;;;;;5001776;28;20610;-90
2023/12/13 05:14:31;;;;;;;6.33;4.30;;;9.60;99.90;;;;;;5018495;28;20211;-89
2023/12/13 05:16:56;;;;;;;8.43;5.70;;;9.50;99.90;;;;;;5001775;28;20619;-89
2023/12/13 05:19:22;;;;;;;5.60;2.93;;;9.70;99.90;;;;;;5001222;28;20234;-90
2023/12/13 05:21:48;;;;;;;5.70;3.33;;;9.20;99.90;;;;;;4986248;28;20705;-90
2023/12/13 05:24:14;;;;;;;6.63;2.67;;;9.30;99.90;;;;;;5001496;28;20225;-90
2023/12/13 05:26:39;;;;;;;3.90;2.90;;;9.60;99.90;;;;;;5001662;28;20222;-88
2023/12/13 05:29:05;;;;;;;5.87;4.00;;;9.40;99.90;;;;;;5001766;28;20210;-91
2023/12/13 05:31:31;;;;;;;7.03;3.83;;;9.70;99.90;;;;;;5001557;28;20187;-91
2023/12/13 05:33:57;;;;;;;4.20;3.43;;;9.30;99.90;;;;;;5001764;28;20187;-91
2023/12/13 05:36:22;;;;;;;6.07;3.83;;;9.60;99.90;;;;;;5001222;28;20226;-89
2023/12/13 05:38:48;;;;;;;3.00;2.60;;;9.60;99.90;;;;;;4984872;28;20225;-89
2023/12/13 05:41:14;;;;;;;3.90;3.40;;;9.60;99.90;;;;;;5035091;28;20710;-89
2023/12/13 05:43:40;;;;;;;2.70;1.90;;;9.40;99.90;;;;;;5001463;28;20225;-88
2023/12/13 05:46:07;;;;;;;8.33;3.73;;;9.30;99.90;;;;;;5001916;28;20179;-89
2023/12/13 05:48:33;;;;;;;4.87;3.87;;;9.30;99.90;;;;;;5035427;28;20317;-90
2023/12/13 05:50:59;;;;;;;8.63;6.33;;;9.40;99.90;;;;;;5001873;28;20667;-90
2023/12/13 05:53:25;;;;;;;6.00;5.50;;;9.30;99.90;;;;;;5001187;28;20225;-89
2023/12/13 05:55:52;;;;;;;5.60;4.47;;;9.20;99.90;;;;;;5034207;28;20230;-90
2023/12/13 05:58:18;;;;;;;4.77;4.13;;;9.20;99.90;;;;;;5001490;28;20622;-86
2023/12/13 06:00:44;;;;;;;8.63;5.03;;;9.20;99.90;;;;;;4985729;28;20531;-88
2023/12/13 06:03:10;;;;;;;12.07;7.33;;;9.50;99.90;;;;;;5000988;28;20226;-89
2023/12/13 06:05:36;;;;;;;2.97;2.80;;;9.50;99.90;;;;;;5000945;28;20214;-89
2023/12/13 06:08:02;;;;;;;4.67;4.07;;;9.20;99.90;;;;;;5017185;28;20219;-89
2023/12/13 06:10:28;;;;;;;7.13;4.27;;;9.40;99.90;;;;;;5001099;28;20228;-90
2023/12/13 06:12:54;;;;;;;2.30;1.83;;;9.10;99.90;;;;;;5001370;28;20193;-88
2023/12/13 06:15:21;;;;;;;3.43;2.43;;;9.10;99.90;;;;;;5000642;28;20222;-89
2023/12/13 06:17:47;;;;;;;6.50;3.40;;;9.30;99.90;;;;;;5031786;28;20235;-88
2023/12/13 06:20:13;;;;;;;3.17;2.43;;;9.30;99.90;;;;;;5001057;28;20230;-89
2023/12/13 06:22:39;;;;;;;4.57;2.27;;;8.90;99.90;;;;;;5016376;28;20211;-88
2023/12/13 06:25:06;;;;;;;5.57;4.97;;;9.40;99.90;;;;;;5001312;28;20555;-89
2023/12/13 06:27:32;;;;;;;14.03;4.30;;;9.20;99.90;;;;;;4983930;28;20272;-90
2023/12/13 06:29:57;;;;;;;3.30;2.23;;;9.10;99.90;;;;;;4984566;28;20569;-90
2023/12/13 06:32:23;;;;;;;2.10;2.00;;;9.00;99.90;;;;;;5016833;28;20214;-88
2023/12/13 06:34:49;;;;;;;5.47;3.33;;;9.10;99.90;;;;;;5000470;28;20214;-88
2023/12/13 06:37:15;;;;;;;2.17;2.03;;;9.10;99.90;;;;;;4984717;28;20209;-88
2023/12/13 06:39:40;;;;;;;5.50;3.90;;;9.10;99.90;;;;;;5016726;28;20218;-89
2023/12/13 06:42:09;;;;;;;2.40;2.20;;;9.00;99.90;;;;;;4999828;28;20218;-89
2023/12/13 06:44:39;;;;;;;4.27;3.17;;;9.40;99.90;;;;;;5000377;28;20214;-89
2023/12/13 06:47:05;;;;;;;6.03;4.50;;;9.20;99.90;;;;;;4999992;28;20301;-87
2023/12/13 06:49:34;;;;;;;3.33;2.77;;;9.20;99.90;;;;;;5016341;28;20182;-91
2023/12/13 06:52:01;;;;;;;3.80;2.57;;;9.50;99.90;;;;;;5000562;28;20182;-91
2023/12/13 06:54:28;;;;;;;3.57;2.93;;;9.20;99.90;;;;;;4984388;28;20762;-90
2023/12/13 06:56:57;;;;;;;10.30;4.70;;;9.40;99.90;;;;;;5000263;28;20222;-90
2023/12/13 06:59:23;;;;;;;4.67;2.60;;;9.00;99.90;;;;;;4999825;28;20226;-91
2023/12/13 07:01:48;;;;;;;5.53;2.60;;;9.20;99.90;;;;;;5016303;28;20223;-89
2023/12/13 07:04:14;;;;;;;2.33;1.93;;;9.10;99.90;;;;;;4984171;28;20179;-89
2023/12/13 07:06:41;;;;;;;5.90;4.83;;;9.20;99.90;;;;;;4983462;28;20302;-89
2023/12/13 07:09:08;;;;;;;3.20;3.00;;;9.00;99.90;;;;;;4983951;28;20222;-88
2023/12/13 07:11:34;;;;;;;2.60;2.27;;;9.40;99.90;;;;;;5016171;28;20685;-89
2023/12/13 07:14:01;;;;;;;3.67;3.40;;;9.30;99.90;;;;;;5015996;28;20241;-87
2023/12/13 07:16:27;;;;;;;2.73;2.53;;;9.30;99.90;;;;;;5000168;28;20187;-88
2023/12/13 07:18:52;;;;;;;2.23;2.10;;;9.00;99.90;;;;;;5010715;28;20226;-89
2023/12/13 07:21:18;;;;;;;4.17;3.87;;;9.40;99.90;;;;;;5036337;28;20612;-87
2023/12/13 07:23:44;;;;;;;4.90;1.90;;;9.30;99.90;;;;;;5003192;28;20673;-88
2023/12/13 07:26:10;;;;;;;5.90;3.10;;;9.30;99.90;;;;;;5019221;28;20301;-87
2023/12/13 07:28:36;;;;;;;4.63;3.97;;;9.40;99.90;;;;;;5002831;28;20193;-89
2023/12/13 07:31:05;;;;;;;3.37;2.80;;;9.30;99.90;;;;;;5020029;28;20179;-88
2023/12/13 07:33:34;;;;;;;4.47;3.57;;;9.20;99.90;;;;;;5035636;28;20218;-86
2023/12/13 07:36:00;;;;;;;5.93;3.90;;;9.10;99.90;;;;;;5019258;28;20217;-87
2023/12/13 07:38:26;;;;;;;8.23;3.40;;;9.20;99.90;;;;;;5035501;28;20229;-88
2023/12/13 07:40:52;;;;;;;7.87;3.27;;;9.30;99.90;;;;;;5002522;28;20218;-89
2023/12/13 07:43:21;;;;;;;7.40;2.90;;;8.90;99.90;;;;;;5018961;28;20630;-89
2023/12/13 07:45:52;;;;;;;8.63;5.07;;;9.10;99.90;;;;;;5019634;28;20214;-88
2023/12/13 07:48:21;;;;;;;9.37;3.43;;;9.00;99.90;;;;;;5019571;28;20271;-88
2023/12/13 07:50:48;;;;;;;2.00;1.80;;;9.10;99.90;;;;;;5053095;28;20214;-88
2023/12/13 07:53:14;;;;;;;4.63;3.23;;;9.30;99.90;;;;;;5002512;28;20677;-87
2023/12/13 07:55:39;;;;;;;2.67;2.47;;;9.10;99.90;;;;;;5002490;28;20229;-86
2023/12/13 07:58:06;;;;;;;5.10;4.80;;;9.40;99.90;;;;;;5051721;28;20216;-89
2023/12/13 08:00:31;;;;;;;5.60;4.10;;;9.50;99.90;;;;;;5052734;28;20304;-88
2023/12/13 08:02:57;;;;;;;6.70;3.57;;;9.40;99.90;;;;;;5019395;28;20240;-89
2023/12/13 08:05:23;;;;;;;3.77;3.10;;;9.00;99.90;;;;;;5036242;28;20572;-88
2023/12/13 08:07:51;;;;;;;3.03;2.83;;;9.10;99.90;;;;;;5002663;28;20237;-88
2023/12/13 08:10:18;;;;;;;6.03;2.30;;;9.00;99.90;;;;;;5019350;28;20231;-88
2023/12/13 08:12:44;;;;;;;2.97;2.77;;;9.10;99.90;;;;;;5034742;28;20206;-87
2023/12/13 08:15:11;;;;;;;4.97;4.30;;;9.30;99.90;;;;;;5052780;28;20237;-88
2023/12/13 08:17:37;;;;;;;3.93;3.53;;;9.40;99.90;;;;;;5034315;28;20226;-91
2023/12/13 08:20:04;;;;;;;3.43;2.73;;;9.10;99.90;;;;;;5032121;28;20252;-90
2023/12/13 08:22:30;;;;;;;4.47;3.37;;;9.10;99.90;;;;;;5015330;28;20692;-90
2023/12/13 08:24:55;;;;;;;5.37;4.03;;;9.10;99.90;;;;;;5016414;28;20183;-89
2023/12/13 08:27:21;;;;;;;12.57;4.70;;;9.50;99.90;;;;;;4998639;28;20214;-87
2023/12/13 08:29:47;;;;;;;6.07;2.77;;;9.20;99.90;;;;;;4982756;28;20214;-90
2023/12/13 08:32:15;;;;;;;3.47;3.07;;;9.30;99.90;;;;;;4982637;28;20260;-89
2023/12/13 08:34:41;;;;;;;4.97;3.40;;;9.40;99.90;;;;;;4999324;28;20215;-91
2023/12/13 08:37:07;;;;;;;4.73;2.97;;;9.50;99.90;;;;;;5018001;28;20199;-90
2023/12/13 08:39:32;;;;;;;3.90;3.63;;;9.20;99.90;;;;;;4986663;28;20566;-88
2023/12/13 08:41:58;;;;;;;10.33;5.37;;;9.20;99.90;;;;;;5019877;28;20321;-88
2023/12/13 08:44:24;;;;;;;4.77;2.50;;;9.20;99.90;;;;;;5002503;28;20233;-87
2023/12/13 08:46:50;;;;;;;4.93;3.33;;;9.10;99.90;;;;;;4986455;28;20242;-87
2023/12/13 08:49:16;;;;;;;6.83;5.40;;;9.20;99.90;;;;;;5036769;28;20257;-90
2023/12/13 08:51:42;;;;;;;14.43;3.90;;;9.30;99.90;;;;;;5003057;28;20251;-89
2023/12/13 08:54:07;;;;;;;4.10;3.70;;;9.40;99.90;;;;;;5018941;28;20218;-88
2023/12/13 08:56:33;;;;;;;5.87;4.47;;;9.20;99.90;;;;;;4989742;28;20682;-90
2023/12/13 08:58:59;;;;;;;6.40;3.90;;;9.50;99.90;;;;;;5031744;28;20234;-91
2023/12/13 09:01:25;;;;;;;4.27;3.23;;;9.20;99.90;;;;;;5013812;28;20270;-92
2023/12/13 09:03:51;;;;;;;9.37;5.97;;;9.60;99.90;;;;;;4986603;28;20198;-92
2023/12/13 09:06:18;;;;;;;5.17;4.83;;;9.30;99.90;;;;;;5035206;28;20659;-90
2023/12/13 09:08:44;;;;;;;7.07;4.50;;;9.70;99.90;;;;;;5002234;28;20214;-86
2023/12/13 09:11:11;;;;;;;3.33;3.13;;;9.40;99.90;;;;;;5018155;28;20218;-90
2023/12/13 09:13:37;;;;;;;6.23;2.83;;;9.70;99.90;;;;;;5002054;28;20218;-91
2023/12/13 09:16:04;;;;;;;4.23;2.37;;;9.40;99.90;;;;;;5018840;28;20262;-89
2023/12/13 09:18:30;;;;;;;7.03;6.37;;;9.50;99.90;;;;;;5025443;28;20237;-88
2023/12/13 09:20:56;;;;;;;10.57;4.33;;;9.50;99.90;;;;;;5021410;28;20267;-90
2023/12/13 09:23:25;;;;;;;5.00;3.40;;;9.80;99.90;;;;;;5021192;28;20649;-88
2023/12/13 09:25:52;;;;;;;15.17;5.17;;;9.70;99.90;;;;;;5055539;28;20288;-88
2023/12/13 09:28:18;;;;;;;6.80;6.00;;;9.60;99.90;;;;;;5038402;28;20263;-88
2023/12/13 09:30:44;;;;;;;14.57;5.57;;;9.90;99.90;;;;;;5055844;28;20197;-88
2023/12/13 09:33:11;;;;;;;5.37;3.13;;;9.90;99.90;;;;;;5021301;28;20214;-90
2023/12/13 09:35:38;;;;;;;3.50;3.30;;;9.60;99.90;;;;;;5037726;28;20283;-89
2023/12/13 09:38:04;;;;;;;6.97;5.50;;;10.00;99.90;;;;;;5020918;28;20283;-89
2023/12/13 09:40:31;;;;;;;4.40;3.80;;;10.00;99.90;;;;;;5054935;28;20183;-89
2023/12/13 09:42:57;;;;;;;4.37;2.40;;;10.00;99.90;;;;;;5055227;28;20174;-89
2023/12/13 09:45:23;;;;;;;3.03;2.83;;;9.80;99.90;;;;;;5020911;28;20739;-90
2023/12/13 09:47:51;;;;;;;5.03;3.37;;;9.90;99.90;;;;;;5054432;28;20226;-88
2023/12/13 09:50:21;;;;;;;5.30;3.47;;;10.00;99.90;;;;;;5037059;28;20244;-87
2023/12/13 09:52:49;;;;;;;5.20;4.37;;;10.00;99.90;;;;;;5054661;28;20263;-91
2023/12/13 09:55:15;;;;;;;6.00;4.40;;;10.00;99.90;;;;;;5055325;28;20174;-89
2023/12/13 09:57:41;;;;;;;11.43;3.47;;;10.20;99.90;;;;;;5037068;28;20271;-91
2023/12/13 10:00:09;;;;;;;4.50;4.10;;;10.20;99.90;;;;;;5053951;28;20217;-90
2023/12/13 10:02:35;;;;;;;5.17;4.10;;;10.10;99.90;;;;;;5037017;28;20206;-90
2023/12/13 10:05:05;;;;;;;3.30;3.00;;;9.80;99.90;;;;;;5036651;28;20241;-91
2023/12/13 10:07:30;;;;;;;12.83;5.53;;;10.10;99.90;;;;;;5036699;28;20217;-89
2023/12/13 10:10:00;;;;;;;8.43;3.77;;;10.20;99.90;;;;;;5022026;28;20186;-87
2023/12/13 10:12:26;;;;;;;4.80;4.40;;;10.00;99.90;;;;;;5021763;28;20272;-92
2023/12/13 10:14:54;;;;;;;9.43;4.17;;;10.10;99.90;;;;;;5021935;28;20301;-88
2023/12/13 10:17:24;;;;;;;4.90;3.63;;;10.30;99.90;;;;;;5020416;28;20376;-89
2023/12/13 10:19:50;;;;;;;6.70;4.70;;;10.10;99.90;;;;;;5020578;28;20627;-88
2023/12/13 10:22:16;;;;;;;9.83;5.20;;;10.40;99.90;;;;;;5033996;28;20270;-88
2023/12/13 10:24:42;;;;;;;7.43;5.37;;;10.40;99.90;;;;;;5016458;28;20225;-89
2023/12/13 10:27:08;;;;;;;15.97;4.73;;;10.10;99.90;;;;;;5016564;28;20554;-88
2023/12/13 10:29:34;;;;;;;4.30;3.40;;;10.10;99.90;;;;;;4984546;28;20272;-88
2023/12/13 10:32:00;;;;;;;13.53;6.30;;;10.20;99.90;;;;;;5016765;28;20674;-88
2023/12/13 10:34:27;;;;;;;7.30;3.20;;;10.20;99.90;;;;;;4984679;28;20183;-87
2023/12/13 10:36:55;;;;;;;5.80;3.47;;;10.40;99.90;;;;;;5000831;28;20278;-89
2023/12/13 10:39:23;;;;;;;5.50;5.10;;;10.40;99.90;;;;;;5017097;28;20214;-90
2023/12/13 10:41:52;;;;;;;7.43;5.20;;;10.20;99.90;;;;;;5016572;28;20576;-92
2023/12/13 10:44:21;;;;;;;6.97;4.67;;;10.40;99.90;;;;;;5016937;28;20226;-92
2023/12/13 10:46:56;;;;;;;3.73;3.43;;;10.40;99.90;;;;;;5016781;28;20226;-89
2023/12/13 10:49:22;;;;;;;5.47;3.83;;;10.30;99.90;;;;;;5016680;28;20170;-87
2023/12/13 10:51:52;;;;;;;6.50;3.20;;;10.50;99.90;;;;;;5000743;28;20633;-91
2023/12/13 10:54:18;;;;;;;8.47;5.07;;;10.20;99.90;;;;;;5000235;28;20341;-87
2023/12/13 10:56:44;;;;;;;5.90;3.20;;;10.40;99.90;;;;;;5016162;28;20272;-90
2023/12/13 10:59:12;;;;;;;2.83;2.53;;;10.50;99.90;;;;;;4983478;28;20617;-88
2023/12/13 11:01:41;;;;;;;7.77;2.67;;;10.20;99.90;;;;;;4984147;28;21748;-90
2023/12/13 11:04:12;;;;;;;11.30;5.17;;;10.40;99.90;;;;;;5016831;28;20178;-88
2023/12/13 11:06:44;;;;;;;5.43;4.03;;;10.20;99.90;;;;;;5000453;28;20221;-89
2023/12/13 11:09:17;;;;;;;5.07;3.60;;;10.30;99.90;;;;;;5001262;28;20221;-90
2023/12/13 11:11:43;;;;;;;3.97;3.60;;;10.30;99.90;;;;;;5016725;28;20222;-89
2023/12/13 11:14:11;;;;;;;11.87;3.03;;;10.30;99.90;;;;;;5032417;28;20222;-87
2023/12/13 11:16:42;;;;;;;10.67;4.37;;;10.50;99.90;;;;;;4999733;28;20236;-88
2023/12/13 11:19:14;;;;;;;7.50;4.10;;;10.50;99.90;;;;;;5010788;28;20233;-90
2023/12/13 11:21:43;;;;;;;5.57;3.33;;;10.40;99.90;;;;;;5037649;28;20256;-88
2023/12/13 11:24:10;;;;;;;15.30;6.03;;;10.60;99.90;;;;;;5044462;28;20216;-89
2023/12/13 11:26:42;;;;;;;20.03;4.27;;;10.40;99.90;;;;;;5069647;28;20292;-88
2023/12/13 11:29:23;;;;;;;7.03;4.10;;;10.40;99.90;;;;;;5035537;28;20356;-89
2023/12/13 11:32:00;;;;;;;13.77;6.93;;;10.60;99.90;;;;;;5035205;28;20303;-89
2023/12/13 11:34:32;;;;;;;4.90;3.43;;;10.60;99.90;;;;;;5051673;28;20281;-88
2023/12/13 11:37:06;;;;;;;4.43;2.70;;;10.60;99.90;;;;;;5053413;28;20267;-87
2023/12/13 11:39:34;;;;;;;7.10;3.03;;;10.50;99.90;;;;;;5035413;28;20213;-90
2023/12/13 11:42:02;;;;;;;3.70;3.10;;;10.50;99.90;;;;;;5034849;28;20221;-91
2023/12/13 11:44:33;;;;;;;6.23;4.63;;;10.50;99.90;;;;;;5035417;28;20247;-91
2023/12/13 11:47:01;;;;;;;4.07;2.90;;;10.50;99.90;;;;;;5035329;28;20218;-90
2023/12/13 11:49:27;;;;;;;12.53;5.13;;;10.50;99.90;;;;;;5053423;28;20520;-88
2023/12/13 11:51:53;;;;;;;8.70;3.77;;;10.80;99.90;;;;;;5019376;28;20174;-89
2023/12/13 11:54:19;;;;;;;5.90;3.97;;;10.80;99.90;;;;;;5035512;28;20256;-89
2023/12/13 11:56:45;;;;;;;6.67;5.23;;;10.50;99.90;;;;;;5038765;28;20603;-90
2023/12/13 11:59:11;;;;;;;17.93;3.53;;;10.40;99.90;;;;;;5046290;28;20210;-91
2023/12/13 12:01:37;;;;;;;5.30;4.70;;;10.40;99.90;;;;;;5051452;28;20228;-92
2023/12/13 12:04:03;;;;;;;6.13;3.20;;;10.60;99.90;;;;;;5053643;28;20247;-89
2023/12/13 12:06:29;;;;;;;8.57;4.50;;;10.40;99.90;;;;;;5040159;28;20225;-92
2023/12/13 12:08:55;;;;;;;6.40;5.00;;;10.30;99.90;;;;;;5026569;28;20217;-90
2023/12/13 12:11:24;;;;;;;7.27;2.93;;;10.00;99.90;;;;;;5041432;28;20240;-88
2023/12/13 12:13:52;;;;;;;9.73;4.83;;;9.90;99.90;;;;;;5046110;28;20229;-89
2023/12/13 12:16:19;;;;;;;8.97;5.70;;;10.00;99.90;;;;;;5044289;28;20182;-90
2023/12/13 12:18:46;;;;;;;10.43;4.33;;;9.80;99.90;;;;;;5043726;28;20251;-86
2023/12/13 12:21:12;;;;;;;12.20;5.47;;;9.70;99.90;;;;;;5043790;28;20232;-91
2023/12/13 12:23:39;;;;;;;7.57;4.27;;;10.00;99.90;;;;;;5060841;28;20234;-90
2023/12/13 12:26:07;;;;;;;10.87;4.10;;;9.70;99.90;;;;;;5044447;28;20218;-89
2023/12/13 12:28:33;;;;;;;5.70;5.20;;;9.70;99.90;;;;;;5042267;28;20243;-90
2023/12/13 12:31:02;;;;;;;15.77;5.27;;;9.60;99.90;;;;;;5041391;28;20218;-90
2023/12/13 12:33:31;;;;;;;6.73;2.77;;;9.60;99.90;;;;;;5025297;28;20622;-89
2023/12/13 12:35:57;;;;;;;6.17;3.47;;;9.50;99.90;;;;;;5042532;28;20312;-90
2023/12/13 12:38:23;;;;;;;4.73;3.93;;;9.70;99.90;;;;;;5042207;28;20264;-90
2023/12/13 12:40:50;;;;;;;1.93;1.87;;;9.50;99.90;;;;;;5049435;28;20238;-90
2023/12/13 12:43:18;;;;;;;5.37;4.57;;;9.30;99.90;;;;;;5074931;28;20214;-90
2023/12/13 12:45:44;;;;;;;3.83;3.50;;;9.50;99.90;;;;;;5058593;28;20197;-90
2023/12/13 12:48:10;;;;;;;8.73;5.30;;;9.50;99.90;;;;;;5064507;28;20190;-90